sensor_id;sensor_type;location;lat;lon;timestamp;P1;durP1;ratioP1;P2;durP2;ratioP2
28296;SDS011;62078;49.366;8.172;2022-12-18T16:51:11;8.57;;;5.50;;
28296;SDS011;62078;49.366;8.172;2022-12-18T16:53:37;8.07;;;5.53;;
28296;SDS011;62078;49.366;8.172;2022-12-18T16:56:02;7.05;;;5.43;;
28296;SDS011;62078;49.366;8.172;2022-12-18T16:58:28;7.82;;;5.20;;
28296;SDS011;62078;49.366;8.172;2022-12-18T17:00:54;7.68;;;5.18;;
28296;SDS011;62078;49.366;8.172;2022-12-18T17:03:19;7.80;;;5.28;;
28296;SDS011;62078;49.366;8.172;2022-12-18T17:05:45;7.50;;;4.97;;
28296;SDS011;62078;49.366;8.172;2022-12-18T17:08:11;8.95;;;5.38;;
28296;SDS011;62078;49.366;8.172;2022-12-18T17:10:36;11.30;;;5.68;;
28296;SDS011;62078;49.366;8.172;2022-12-18T17:13:02;7.65;;;4.90;;
28296;SDS011;62078;49.366;8.172;2022-12-18T17:15:28;7.40;;;5.05;;
28296;SDS011;62078;49.366;8.172;2022-12-18T17:17:53;9.05;;;5.03;;
28296;SDS011;62078;49.366;8.172;2022-12-18T17:20:19;7.18;;;5.07;;
28296;SDS011;62078;49.366;8.172;2022-12-18T17:22:44;6.47;;;4.82;;
28296;SDS011;62078;49.366;8.172;2022-12-18T17:25:10;7.03;;;4.97;;
28296;SDS011;62078;49.366;8.172;2022-12-18T17:27:36;10.52;;;4.97;;
28296;SDS011;62078;49.366;8.172;2022-12-18T17:30:02;9.50;;;5.57;;
28296;SDS011;62078;49.366;8.172;2022-12-18T17:32:28;11.73;;;5.05;;
28296;SDS011;62078;49.366;8.172;2022-12-18T17:34:54;9.80;;;5.03;;
28296;SDS011;62078;49.366;8.172;2022-12-18T17:37:19;9.48;;;5.53;;
28296;SDS011;62078;49.366;8.172;2022-12-18T17:39:45;8.38;;;5.35;;
28296;SDS011;62078;49.366;8.172;2022-12-18T17:42:11;8.02;;;4.47;;
28296;SDS011;62078;49.366;8.172;2022-12-18T17:44:37;6.63;;;4.90;;
28296;SDS011;62078;49.366;8.172;2022-12-18T17:47:03;7.45;;;5.15;;
28296;SDS011;62078;49.366;8.172;2022-12-18T17:49:30;7.13;;;4.45;;
28296;SDS011;62078;49.366;8.172;2022-12-18T17:51:55;7.22;;;4.80;;
28296;SDS011;62078;49.366;8.172;2022-12-18T17:54:21;17.83;;;5.07;;
28296;SDS011;62078;49.366;8.172;2022-12-18T17:56:47;15.32;;;5.57;;
28296;SDS011;62078;49.366;8.172;2022-12-18T17:59:12;12.32;;;5.68;;
28296;SDS011;62078;49.366;8.172;2022-12-18T18:01:38;20.00;;;14.85;;
28296;SDS011;62078;49.366;8.172;2022-12-18T18:04:04;40.80;;;19.95;;
28296;SDS011;62078;49.366;8.172;2022-12-18T18:06:31;38.90;;;19.55;;
28296;SDS011;62078;49.366;8.172;2022-12-18T18:08:56;27.65;;;17.48;;
28296;SDS011;62078;49.366;8.172;2022-12-18T18:11:23;31.55;;;13.25;;
28296;SDS011;62078;49.366;8.172;2022-12-18T18:14:15;28.08;;;12.65;;
28296;SDS011;62078;49.366;8.172;2022-12-18T18:16:44;25.50;;;11.27;;
28296;SDS011;62078;49.366;8.172;2022-12-18T18:19:13;22.10;;;10.90;;
28296;SDS011;62078;49.366;8.172;2022-12-18T18:21:44;16.02;;;9.38;;
28296;SDS011;62078;49.366;8.172;2022-12-18T18:24:13;24.65;;;9.38;;
28296;SDS011;62078;49.366;8.172;2022-12-18T18:26:40;15.48;;;8.63;;
28296;SDS011;62078;49.366;8.172;2022-12-18T18:29:13;14.65;;;8.45;;
28296;SDS011;62078;49.366;8.172;2022-12-18T18:31:41;14.85;;;7.97;;
28296;SDS011;62078;49.366;8.172;2022-12-18T18:34:11;17.42;;;7.88;;
28296;SDS011;62078;49.366;8.172;2022-12-18T18:36:41;18.90;;;8.40;;
28296;SDS011;62078;49.366;8.172;2022-12-18T18:39:08;18.27;;;8.50;;
28296;SDS011;62078;49.366;8.172;2022-12-18T18:41:34;12.25;;;7.25;;
28296;SDS011;62078;49.366;8.172;2022-12-18T18:43:59;17.52;;;8.63;;
28296;SDS011;62078;49.366;8.172;2022-12-18T18:46:25;18.17;;;7.40;;
28296;SDS011;62078;49.366;8.172;2022-12-18T18:48:51;13.52;;;7.30;;
28296;SDS011;62078;49.366;8.172;2022-12-18T18:51:17;12.05;;;7.13;;
28296;SDS011;62078;49.366;8.172;2022-12-18T18:53:44;11.93;;;7.05;;
28296;SDS011;62078;49.366;8.172;2022-12-18T18:56:12;12.15;;;7.05;;
28296;SDS011;62078;49.366;8.172;2022-12-18T18:58:39;13.25;;;7.00;;
28296;SDS011;62078;49.366;8.172;2022-12-18T19:01:06;9.95;;;6.90;;
28296;SDS011;62078;49.366;8.172;2022-12-18T19:03:34;12.80;;;7.38;;
28296;SDS011;62078;49.366;8.172;2022-12-18T19:06:01;13.27;;;7.57;;
28296;SDS011;62078;49.366;8.172;2022-12-18T19:08:28;12.80;;;6.88;;
28296;SDS011;62078;49.366;8.172;2022-12-18T19:10:57;9.20;;;6.63;;
28296;SDS011;62078;49.366;8.172;2022-12-18T19:13:26;9.48;;;6.38;;
28296;SDS011;62078;49.366;8.172;2022-12-18T19:15:54;10.43;;;6.57;;
28296;SDS011;62078;49.366;8.172;2022-12-18T19:18:26;9.90;;;6.03;;
28296;SDS011;62078;49.366;8.172;2022-12-18T19:20:53;10.23;;;6.30;;
28296;SDS011;62078;49.366;8.172;2022-12-18T19:23:22;10.65;;;6.65;;
28296;SDS011;62078;49.366;8.172;2022-12-18T19:25:48;9.07;;;6.32;;
28296;SDS011;62078;49.366;8.172;2022-12-18T19:28:14;9.88;;;6.47;;
28296;SDS011;62078;49.366;8.172;2022-12-18T19:30:40;10.20;;;6.55;;
28296;SDS011;62078;49.366;8.172;2022-12-18T19:33:06;12.15;;;6.55;;
28296;SDS011;62078;49.366;8.172;2022-12-18T19:35:31;9.90;;;6.22;;
28296;SDS011;62078;49.366;8.172;2022-12-18T19:37:57;11.85;;;5.75;;
28296;SDS011;62078;49.366;8.172;2022-12-18T19:40:23;8.77;;;6.10;;
28296;SDS011;62078;49.366;8.172;2022-12-18T19:42:49;8.13;;;5.90;;
28296;SDS011;62078;49.366;8.172;2022-12-18T19:45:15;9.50;;;7.10;;
28296;SDS011;62078;49.366;8.172;2022-12-18T19:47:41;8.02;;;5.40;;
28296;SDS011;62078;49.366;8.172;2022-12-18T19:50:07;10.07;;;6.18;;
28296;SDS011;62078;49.366;8.172;2022-12-18T19:52:33;11.77;;;6.47;;
28296;SDS011;62078;49.366;8.172;2022-12-18T19:54:59;10.18;;;6.38;;
28296;SDS011;62078;49.366;8.172;2022-12-18T19:57:25;8.98;;;6.00;;
28296;SDS011;62078;49.366;8.172;2022-12-18T19:59:50;9.60;;;6.35;;
28296;SDS011;62078;49.366;8.172;2022-12-18T20:02:16;9.18;;;5.85;;
28296;SDS011;62078;49.366;8.172;2022-12-18T20:04:43;10.63;;;6.25;;
28296;SDS011;62078;49.366;8.172;2022-12-18T20:07:09;9.27;;;6.40;;
28296;SDS011;62078;49.366;8.172;2022-12-18T20:09:35;8.95;;;5.90;;
28296;SDS011;62078;49.366;8.172;2022-12-18T20:12:01;13.13;;;6.45;;
28296;SDS011;62078;49.366;8.172;2022-12-18T20:14:27;10.10;;;6.28;;
28296;SDS011;62078;49.366;8.172;2022-12-18T20:16:53;8.32;;;6.15;;
28296;SDS011;62078;49.366;8.172;2022-12-18T20:19:19;10.95;;;7.05;;
28296;SDS011;62078;49.366;8.172;2022-12-18T20:21:45;10.52;;;6.55;;
28296;SDS011;62078;49.366;8.172;2022-12-18T20:24:11;9.73;;;6.75;;
28296;SDS011;62078;49.366;8.172;2022-12-18T20:26:37;10.05;;;6.78;;
28296;SDS011;62078;49.366;8.172;2022-12-18T20:29:04;10.60;;;6.60;;
28296;SDS011;62078;49.366;8.172;2022-12-18T20:31:30;10.82;;;6.40;;
28296;SDS011;62078;49.366;8.172;2022-12-18T20:33:56;10.00;;;6.30;;
28296;SDS011;62078;49.366;8.172;2022-12-18T20:36:22;12.18;;;5.63;;
28296;SDS011;62078;49.366;8.172;2022-12-18T20:38:48;8.93;;;6.35;;
28296;SDS011;62078;49.366;8.172;2022-12-18T20:41:18;10.50;;;7.15;;
28296;SDS011;62078;49.366;8.172;2022-12-18T20:43:45;12.98;;;7.20;;
28296;SDS011;62078;49.366;8.172;2022-12-18T20:46:11;14.05;;;7.40;;
28296;SDS011;62078;49.366;8.172;2022-12-18T20:48:38;14.25;;;7.72;;
28296;SDS011;62078;49.366;8.172;2022-12-18T20:51:06;15.52;;;6.93;;
28296;SDS011;62078;49.366;8.172;2022-12-18T20:53:34;20.75;;;8.05;;
28296;SDS011;62078;49.366;8.172;2022-12-18T20:56:00;19.50;;;7.75;;
28296;SDS011;62078;49.366;8.172;2022-12-18T20:58:30;15.88;;;7.78;;
28296;SDS011;62078;49.366;8.172;2022-12-18T21:01:06;23.23;;;8.93;;
28296;SDS011;62078;49.366;8.172;2022-12-18T21:03:37;21.00;;;7.82;;
28296;SDS011;62078;49.366;8.172;2022-12-18T21:06:04;17.42;;;7.47;;
28296;SDS011;62078;49.366;8.172;2022-12-18T21:08:31;13.18;;;7.78;;
28296;SDS011;62078;49.366;8.172;2022-12-18T21:11:10;17.25;;;7.28;;
28296;SDS011;62078;49.366;8.172;2022-12-18T21:13:57;15.70;;;7.60;;
28296;SDS011;62078;49.366;8.172;2022-12-18T21:16:23;16.70;;;7.75;;
28296;SDS011;62078;49.366;8.172;2022-12-18T21:18:49;18.08;;;7.97;;
28296;SDS011;62078;49.366;8.172;2022-12-18T21:21:14;16.27;;;7.55;;
28296;SDS011;62078;49.366;8.172;2022-12-18T21:23:40;16.67;;;7.35;;
28296;SDS011;62078;49.366;8.172;2022-12-18T21:26:19;13.70;;;7.78;;
28296;SDS011;62078;49.366;8.172;2022-12-18T21:28:45;16.00;;;7.88;;
28296;SDS011;62078;49.366;8.172;2022-12-18T21:31:11;15.82;;;8.02;;
28296;SDS011;62078;49.366;8.172;2022-12-18T21:33:37;13.05;;;7.45;;
28296;SDS011;62078;49.366;8.172;2022-12-18T21:36:06;13.20;;;7.50;;
28296;SDS011;62078;49.366;8.172;2022-12-18T21:38:32;13.10;;;7.72;;
28296;SDS011;62078;49.366;8.172;2022-12-18T21:40:58;16.98;;;7.07;;
28296;SDS011;62078;49.366;8.172;2022-12-18T21:43:23;12.95;;;6.80;;
28296;SDS011;62078;49.366;8.172;2022-12-18T21:46:08;12.13;;;7.38;;
28296;SDS011;62078;49.366;8.172;2022-12-18T21:48:33;12.07;;;6.82;;
28296;SDS011;62078;49.366;8.172;2022-12-18T21:51:02;12.90;;;7.35;;
28296;SDS011;62078;49.366;8.172;2022-12-18T21:53:28;15.65;;;7.82;;
28296;SDS011;62078;49.366;8.172;2022-12-18T21:55:57;15.10;;;6.97;;
28296;SDS011;62078;49.366;8.172;2022-12-18T21:58:23;13.43;;;7.78;;
28296;SDS011;62078;49.366;8.172;2022-12-18T22:00:49;11.48;;;7.10;;
28296;SDS011;62078;49.366;8.172;2022-12-18T22:03:15;11.15;;;6.93;;
28296;SDS011;62078;49.366;8.172;2022-12-18T22:05:42;12.20;;;7.00;;
28296;SDS011;62078;49.366;8.172;2022-12-18T22:08:08;9.90;;;6.25;;
28296;SDS011;62078;49.366;8.172;2022-12-18T22:10:34;14.38;;;7.03;;
28296;SDS011;62078;49.366;8.172;2022-12-18T22:13:00;12.40;;;7.25;;
28296;SDS011;62078;49.366;8.172;2022-12-18T22:15:26;12.10;;;7.15;;
28296;SDS011;62078;49.366;8.172;2022-12-18T22:17:52;11.80;;;7.10;;
28296;SDS011;62078;49.366;8.172;2022-12-18T22:20:18;12.23;;;6.45;;
28296;SDS011;62078;49.366;8.172;2022-12-18T22:22:43;11.75;;;7.15;;
28296;SDS011;62078;49.366;8.172;2022-12-18T22:25:09;12.05;;;7.10;;
28296;SDS011;62078;49.366;8.172;2022-12-18T22:27:36;11.88;;;6.93;;
28296;SDS011;62078;49.366;8.172;2022-12-18T22:30:02;10.38;;;6.88;;
28296;SDS011;62078;49.366;8.172;2022-12-18T22:32:29;10.70;;;6.72;;
28296;SDS011;62078;49.366;8.172;2022-12-18T22:34:56;13.25;;;7.10;;
28296;SDS011;62078;49.366;8.172;2022-12-18T22:37:22;12.57;;;6.82;;
28296;SDS011;62078;49.366;8.172;2022-12-18T22:39:48;11.45;;;7.25;;
28296;SDS011;62078;49.366;8.172;2022-12-18T22:42:13;9.52;;;6.53;;
28296;SDS011;62078;49.366;8.172;2022-12-18T22:44:39;10.68;;;6.53;;
28296;SDS011;62078;49.366;8.172;2022-12-18T22:47:04;10.50;;;6.57;;
28296;SDS011;62078;49.366;8.172;2022-12-18T22:49:30;12.32;;;6.25;;
28296;SDS011;62078;49.366;8.172;2022-12-18T22:51:56;10.18;;;6.93;;
28296;SDS011;62078;49.366;8.172;2022-12-18T22:54:22;10.50;;;6.70;;
28296;SDS011;62078;49.366;8.172;2022-12-18T22:56:47;10.32;;;6.45;;
28296;SDS011;62078;49.366;8.172;2022-12-18T22:59:17;10.35;;;7.15;;
28296;SDS011;62078;49.366;8.172;2022-12-18T23:01:44;10.77;;;6.55;;
28296;SDS011;62078;49.366;8.172;2022-12-18T23:04:10;11.13;;;6.18;;
28296;SDS011;62078;49.366;8.172;2022-12-18T23:06:36;11.07;;;7.05;;
28296;SDS011;62078;49.366;8.172;2022-12-18T23:09:02;8.65;;;5.65;;
28296;SDS011;62078;49.366;8.172;2022-12-18T23:11:28;10.10;;;5.90;;
28296;SDS011;62078;49.366;8.172;2022-12-18T23:13:54;10.20;;;6.20;;
28296;SDS011;62078;49.366;8.172;2022-12-18T23:16:19;10.60;;;6.35;;
28296;SDS011;62078;49.366;8.172;2022-12-18T23:18:46;10.30;;;6.60;;
28296;SDS011;62078;49.366;8.172;2022-12-18T23:21:17;8.20;;;5.55;;
28296;SDS011;62078;49.366;8.172;2022-12-18T23:23:44;8.55;;;5.90;;
28296;SDS011;62078;49.366;8.172;2022-12-18T23:26:14;9.05;;;5.75;;
28296;SDS011;62078;49.366;8.172;2022-12-18T23:28:44;11.15;;;6.38;;
28296;SDS011;62078;49.366;8.172;2022-12-18T23:33:41;9.27;;;6.10;;
28296;SDS011;62078;49.366;8.172;2022-12-18T23:36:07;10.50;;;6.18;;
28296;SDS011;62078;49.366;8.172;2022-12-18T23:38:33;8.30;;;5.72;;
28296;SDS011;62078;49.366;8.172;2022-12-18T23:40:59;9.70;;;6.03;;
28296;SDS011;62078;49.366;8.172;2022-12-18T23:43:31;9.00;;;6.10;;
28296;SDS011;62078;49.366;8.172;2022-12-18T23:45:57;8.25;;;5.97;;
28296;SDS011;62078;49.366;8.172;2022-12-18T23:48:22;8.75;;;5.90;;
28296;SDS011;62078;49.366;8.172;2022-12-18T23:50:48;9.38;;;5.53;;
28296;SDS011;62078;49.366;8.172;2022-12-18T23:53:13;9.68;;;6.15;;
28296;SDS011;62078;49.366;8.172;2022-12-18T23:55:40;9.80;;;6.00;;
28296;SDS011;62078;49.366;8.172;2022-12-18T23:58:17;8.93;;;5.25;;
